Time;durP1;ratioP1;P1;durP2;ratioP2;P2;SDS_P1;SDS_P2;PMS_P1;PMS_P2;Temp;Humidity;BMP_temperature;BMP_pressure;BME280_temperature;BME280_humidity;BME280_pressure;Samples;Min_cycle;Max_cycle;Signal;HPM_P1;HPM_P2
2023/01/12 00:01:26;;;;;;;;;;;;;;;5.25;100.00;99769.88;5114074;28;849;-69
2023/01/12 00:03:54;;;;;;;;;;;;;;;5.14;100.00;99786.13;5114152;28;994;-70
2023/01/12 00:06:22;;;;;;;;;;;;;;;5.01;100.00;99779.25;5114049;28;890;-68
2023/01/12 00:08:50;;;;;;;;;;;;;;;4.83;100.00;99778.94;5114002;28;898;-69
2023/01/12 00:11:17;;;;;;;;;;;;;;;4.73;100.00;99772.09;5112226;28;1885;-66
2023/01/12 00:13:45;;;;;;;;;;;;;;;4.64;100.00;99766.88;5113896;28;846;-65
2023/01/12 00:16:36;;;;;;;;;;;;;;;4.58;100.00;99759.31;5114020;28;796;-63
2023/01/12 00:19:09;;;;;;;;;;;;;;;4.52;100.00;99769.75;5113820;27;835;-63
2023/01/12 00:24:17;;;;;;;;;;;;;;;4.48;100.00;99763.44;5113681;28;685;-61
2023/01/12 00:26:45;;;;;;;;;;;;;;;4.47;100.00;99770.84;5113587;28;815;-62
2023/01/12 00:29:11;;;;;;;;;;;;;;;4.48;100.00;99774.38;5113568;28;819;-61
2023/01/12 00:31:38;;;;;;;;;;;;;;;4.46;100.00;99771.25;5113397;28;2360;-62
2023/01/12 00:34:05;;;;;;;;;;;;;;;4.43;100.00;99763.72;5112247;28;887;-62
2023/01/12 00:36:32;;;;;;;;;;;;;;;4.46;100.00;99771.25;5113728;28;839;-62
2023/01/12 00:38:59;;;;;;;;;;;;;;;4.45;100.00;99775.09;5113460;28;870;-62
2023/01/12 00:46:56;;;;;;;;;;;;;;;4.45;100.00;99764.94;5113579;28;618;-64
2023/01/12 00:49:23;;;;;;;;;;;;;;;4.46;100.00;99780.22;5113196;28;921;-63
2023/01/12 00:51:50;;;;;;;;;;;;;;;4.57;100.00;99785.13;5113353;28;1910;-62
2023/01/12 00:54:17;;;;;;;;;;;;;;;4.61;100.00;99773.09;5113051;28;835;-61
2023/01/12 00:56:43;;;;;;;;;;;;;;;4.65;100.00;99768.47;5113187;28;819;-62
2023/01/12 00:59:10;;;;;;;;;;;;;;;4.68;100.00;99780.63;5113121;28;905;-61
2023/01/12 01:01:36;;;;;;;;;;;;;;;4.67;100.00;99779.03;5111653;28;839;-63
2023/01/12 01:04:03;;;;;;;;;;;;;;;4.70;100.00;99773.63;5113284;28;839;-64
2023/01/12 01:06:30;;;;;;;;;;;;;;;4.75;100.00;99760.81;5112105;28;863;-64
2023/01/12 01:08:56;;;;;;;;;;;;;;;4.77;100.00;99769.44;5112887;28;815;-64
2023/01/12 01:11:23;;;;;;;;;;;;;;;4.80;100.00;99757.75;5112481;28;1890;-65
2023/01/12 01:13:53;;;;;;;;;;;;;;;4.79;100.00;99758.91;5112820;28;812;-65
2023/01/12 01:16:19;;;;;;;;;;;;;;;4.82;100.00;99755.44;5112673;28;854;-64
2023/01/12 01:18:46;;;;;;;;;;;;;;;4.83;100.00;99765.25;5112633;28;840;-63
2023/01/12 01:21:13;;;;;;;;;;;;;;;4.80;100.00;99750.34;5112524;28;886;-64
2023/01/12 01:23:41;;;;;;;;;;;;;;;4.77;100.00;99753.78;5112523;28;979;-65
2023/01/12 01:26:10;;;;;;;;;;;;;;;4.81;100.00;99764.81;5112420;28;852;-69
2023/01/12 01:28:37;;;;;;;;;;;;;;;4.80;100.00;99763.22;5112447;28;795;-66
2023/01/12 01:31:06;;;;;;;;;;;;;;;4.81;100.00;99759.34;5112378;28;1914;-65
2023/01/12 01:33:33;;;;;;;;;;;;;;;4.77;100.00;99740.09;5112358;28;879;-67
2023/01/12 01:35:59;;;;;;;;;;;;;;;4.77;100.00;99761.22;5112278;28;788;-66
2023/01/12 01:38:27;;;;;;;;;;;;;;;4.71;100.00;99763.47;5112330;28;890;-66
2023/01/12 01:40:54;;;;;;;;;;;;;;;4.65;100.00;99759.44;5112098;28;843;-64
2023/01/12 01:43:22;;;;;;;;;;;;;;;4.59;100.00;99753.50;5112205;28;823;-64
2023/01/12 01:45:55;;;;;;;;;;;;;;;4.59;100.00;99766.38;5112150;28;799;-64
2023/01/12 01:48:23;;;;;;;;;;;;;;;4.59;100.00;99791.03;5112211;28;835;-65
2023/01/12 01:51:01;;;;;;;;;;;;;;;4.59;100.00;99794.56;5111983;28;1886;-66
2023/01/12 01:53:29;;;;;;;;;;;;;;;4.58;100.00;99782.00;5112231;28;870;-66
2023/01/12 01:55:58;;;;;;;;;;;;;;;4.56;100.00;99778.84;5112022;28;870;-66
2023/01/12 01:58:37;;;;;;;;;;;;;;;4.49;100.00;99781.44;5112054;28;811;-66
2023/01/12 02:01:05;;;;;;;;;;;;;;;4.33;100.00;99794.41;5112249;28;844;-67
2023/01/12 02:03:32;;;;;;;;;;;;;;;4.18;100.00;99799.63;5112211;28;856;-64
2023/01/12 02:05:59;;;;;;;;;;;;;;;4.08;100.00;99797.44;5112172;28;828;-63
2023/01/12 02:08:32;;;;;;;;;;;;;;;4.01;100.00;99780.84;5112085;28;835;-61
2023/01/12 02:11:01;;;;;;;;;;;;;;;3.98;100.00;99785.09;5111800;28;1874;-63
2023/01/12 02:16:21;;;;;;;;;;;;;;;4.01;100.00;99769.91;5111858;28;622;-61
2023/01/12 02:19:06;;;;;;;;;;;;;;;3.95;100.00;99785.84;5115862;28;882;-61
2023/01/12 02:21:51;;;;;;;;;;;;;;;3.94;100.00;99791.66;5116066;27;901;-61
2023/01/12 02:24:44;;;;;;;;;;;;;;;3.92;100.00;99785.75;5116036;28;815;-60
2023/01/12 02:27:23;;;;;;;;;;;;;;;3.91;100.00;99789.66;5115947;28;823;-60
2023/01/12 02:30:29;;;;;;;;;;;;;;;3.89;100.00;99793.53;5116012;28;851;-59
2023/01/12 02:33:02;;;;;;;;;;;;;;;3.89;100.00;99799.00;5073280;28;1343;-59
2023/01/12 02:35:42;;;;;;;;;;;;;;;3.92;100.00;99804.91;5073005;28;862;-59
2023/01/12 02:38:09;;;;;;;;;;;;;;;3.91;100.00;99801.38;5099366;28;925;-59
2023/01/12 02:40:43;;;;;;;;;;;;;;;3.87;100.00;99809.50;5116231;27;771;-59
2023/01/12 02:43:14;;;;;;;;;;;;;;;3.89;100.00;99800.94;5115701;28;878;-59
2023/01/12 02:45:53;;;;;;;;;;;;;;;3.86;100.00;99793.44;5115659;28;831;-59
2023/01/12 02:48:24;;;;;;;;;;;;;;;3.87;100.00;99795.03;5115672;28;791;-60
2023/01/12 02:51:03;;;;;;;;;;;;;;;3.85;100.00;99794.59;5115463;28;1945;-60
2023/01/12 02:53:37;;;;;;;;;;;;;;;3.85;100.00;99787.19;5115474;28;862;-60
2023/01/12 02:56:06;;;;;;;;;;;;;;;3.86;100.00;99783.31;5115487;28;838;-60
2023/01/12 02:58:36;;;;;;;;;;;;;;;3.86;100.00;99775.09;5115339;28;850;-61
2023/01/12 03:01:05;;;;;;;;;;;;;;;3.87;100.00;99784.88;5115692;28;851;-60
2023/01/12 03:03:34;;;;;;;;;;;;;;;3.84;100.00;99782.88;5115233;28;898;-60
2023/01/12 03:06:01;;;;;;;;;;;;;;;3.83;100.00;99789.47;5115195;27;933;-60
2023/01/12 03:08:29;;;;;;;;;;;;;;;3.83;100.00;99789.47;5115183;28;886;-61
2023/01/12 03:11:03;;;;;;;;;;;;;;;3.82;100.00;99759.75;5114717;28;1906;-60
2023/01/12 03:13:33;;;;;;;;;;;;;;;3.81;100.00;99785.53;5115538;28;843;-61
2023/01/12 03:16:02;;;;;;;;;;;;;;;3.77;100.00;99773.72;5115288;28;858;-63
2023/01/12 03:18:32;;;;;;;;;;;;;;;3.78;100.00;99787.03;5114896;28;956;-62
2023/01/12 03:21:04;;;;;;;;;;;;;;;3.77;100.00;99779.19;5114910;28;815;-60
2023/01/12 03:23:36;;;;;;;;;;;;;;;3.79;100.00;99769.47;5114847;28;870;-60
2023/01/12 03:26:04;;;;;;;;;;;;;;;3.75;100.00;99776.78;5114824;28;874;-60
2023/01/12 03:28:33;;;;;;;;;;;;;;;3.75;100.00;99770.53;5114286;28;824;-60
2023/01/12 03:31:09;;;;;;;;;;;;;;;3.73;100.00;99789.25;5113602;28;1890;-61
2023/01/12 03:33:38;;;;;;;;;;;;;;;3.72;100.00;99793.13;5114736;28;823;-60
2023/01/12 03:36:11;;;;;;;;;;;;;;;3.68;100.00;99799.31;5114728;28;803;-60
2023/01/12 03:38:38;;;;;;;;;;;;;;;3.68;100.00;99793.06;5114449;28;870;-61
2023/01/12 03:41:12;;;;;;;;;;;;;;;3.65;100.00;99772.69;5114546;28;891;-60
2023/01/12 03:43:48;;;;;;;;;;;;;;;3.61;100.00;99777.28;5114725;28;914;-60
2023/01/12 03:46:23;;;;;;;;;;;;;;;3.62;100.00;99778.84;5114457;28;820;-60
2023/01/12 03:48:53;;;;;;;;;;;;;;;3.57;100.00;99775.63;5114383;28;920;-60
2023/01/12 03:51:20;;;;;;;;;;;;;;;3.56;100.00;99774.03;5114376;28;1890;-59
2023/01/12 03:53:48;;;;;;;;;;;;;;;3.54;100.00;99779.06;5114553;28;812;-60
2023/01/12 03:56:17;;;;;;;;;;;;;;;3.53;100.00;99780.22;5114252;28;854;-60
2023/01/12 03:58:44;;;;;;;;;;;;;;;3.54;100.00;99788.06;5114193;28;949;-60
2023/01/12 04:01:12;;;;;;;;;;;;;;;3.52;100.00;99773.16;5114464;28;842;-60
2023/01/12 04:03:39;;;;;;;;;;;;;;;3.54;100.00;99787.25;5114204;27;811;-60
2023/01/12 04:06:07;;;;;;;;;;;;;;;3.52;100.00;99771.22;5113953;28;807;-60
2023/01/12 04:08:34;;;;;;;;;;;;;;;3.54;100.00;99777.13;5113984;28;831;-60
2023/01/12 04:12:08;;;;;;;;;;;;;;;3.54;100.00;99771.66;5113520;28;1963;-61
2023/01/12 04:13:49;;;;;;;;;;;;;;;3.56;100.00;99760.34;5113916;28;847;-60
2023/01/12 04:16:16;;;;;;;;;;;;;;;3.54;100.00;99760.72;5113928;28;862;-61
2023/01/12 04:18:44;;;;;;;;;;;;;;;3.51;100.00;99796.97;5113773;28;894;-60
2023/01/12 04:22:41;;;;;;;;;;;;;;;3.54;100.00;99779.88;5113798;28;878;-59
2023/01/12 04:23:59;;;;;;;;;;;;;;;3.53;100.00;99780.22;5113712;28;866;-59
2023/01/12 04:26:26;;;;;;;;;;;;;;;3.50;100.00;99776.25;5113649;28;890;-58
2023/01/12 04:28:54;;;;;;;;;;;;;;;3.51;100.00;99760.66;5113671;28;838;-59
2023/01/12 04:31:21;;;;;;;;;;;;;;;3.52;100.00;99775.88;5113607;28;1973;-58
2023/01/12 04:33:47;;;;;;;;;;;;;;;3.50;100.00;99794.56;5113490;28;831;-58
2023/01/12 04:36:15;;;;;;;;;;;;;;;3.50;100.00;99765.31;5113515;28;875;-59
2023/01/12 04:38:41;;;;;;;;;;;;;;;3.45;100.00;99771.84;5113403;27;862;-59
2023/01/12 04:41:08;;;;;;;;;;;;;;;3.43;100.00;99784.28;5112222;28;815;-59
2023/01/12 04:43:36;;;;;;;;;;;;;;;3.42;100.00;99782.69;5113324;28;831;-58
2023/01/12 04:46:07;;;;;;;;;;;;;;;3.39;100.00;99777.94;5113271;28;859;-58
2023/01/12 04:48:35;;;;;;;;;;;;;;;3.39;100.00;99791.59;5113197;28;807;-58
2023/01/12 04:51:02;;;;;;;;;;;;;;;3.35;100.00;99782.50;5113067;28;1881;-58
2023/01/12 04:53:29;;;;;;;;;;;;;;;3.33;100.00;99790.25;5113190;28;834;-58
2023/01/12 04:55:55;;;;;;;;;;;;;;;3.31;100.00;99793.38;5113002;28;886;-58
2023/01/12 04:58:22;;;;;;;;;;;;;;;3.30;100.00;99786.31;5113351;28;898;-59
2023/01/12 05:00:49;;;;;;;;;;;;;;;3.32;100.00;99789.47;5112925;28;886;-58
2023/01/12 05:03:16;;;;;;;;;;;;;;;3.31;100.00;99807.03;5112940;28;807;-59
2023/01/12 05:05:44;;;;;;;;;;;;;;;3.27;100.00;99797.97;5112882;28;961;-59
2023/01/12 05:10:57;;;;;;;;;;;;;;;3.20;100.00;99814.16;5112840;28;1906;-59
2023/01/12 05:13:25;;;;;;;;;;;;;;;3.20;100.00;99811.41;5112773;28;826;-59
2023/01/12 05:15:52;;;;;;;;;;;;;;;3.16;100.00;99819.53;5112701;28;867;-59
2023/01/12 05:18:19;;;;;;;;;;;;;;;3.19;100.00;99818.03;5112680;28;838;-59
2023/01/12 05:20:46;;;;;;;;;;;;;;;3.18;100.00;99825.44;5112592;28;808;-59
2023/01/12 05:23:12;;;;;;;;;;;;;;;3.21;100.00;99840.34;5112591;28;886;-59
2023/01/12 05:25:39;;;;;;;;;;;;;;;3.21;100.00;99816.53;5112494;28;886;-59
2023/01/12 05:28:07;;;;;;;;;;;;;;;3.24;100.00;99828.69;5112782;28;874;-59
2023/01/12 05:30:34;;;;;;;;;;;;;;;3.17;100.00;99840.25;5112389;28;799;-59
2023/01/12 06:01:28;;;;;;;;;;;;;;;2.80;100.00;99861.50;5692990;22;1490;-60
2023/01/12 06:03:56;;;;;;;;;;;;;;;2.80;100.00;99867.75;5071483;28;875;-59
2023/01/12 06:06:24;;;;;;;;;;;;;;;2.79;100.00;99859.91;5071429;28;803;-59
2023/01/12 06:08:52;;;;;;;;;;;;;;;2.79;100.00;99868.09;5071696;28;895;-59
2023/01/12 06:14:08;;;;;;;;;;;;;;;2.76;100.00;99866.88;5071244;28;1105;-60
2023/01/12 06:16:37;;;;;;;;;;;;;;;2.76;100.00;99868.81;5071257;28;831;-59
2023/01/12 06:19:05;;;;;;;;;;;;;;;2.77;100.00;99859.47;5071504;28;878;-60
2023/01/12 06:21:33;;;;;;;;;;;;;;;2.75;100.00;99829.81;5071266;28;795;-60
2023/01/12 06:24:00;;;;;;;;;;;;;;;2.77;100.00;99864.91;5071258;28;870;-60
2023/01/12 06:26:26;;;;;;;;;;;;;;;2.78;100.00;99850.94;5071272;28;897;-59
2023/01/12 06:28:53;;;;;;;;;;;;;;;2.75;100.00;99859.00;5071171;28;902;-60
2023/01/12 06:31:20;;;;;;;;;;;;;;;2.74;100.00;99857.44;5070992;28;1910;-60
2023/01/12 06:33:47;;;;;;;;;;;;;;;2.74;100.00;99860.16;5071158;28;874;-60
2023/01/12 06:36:13;;;;;;;;;;;;;;;2.72;100.00;99855.06;5071208;28;815;-60
2023/01/12 06:38:40;;;;;;;;;;;;;;;2.72;100.00;99870.63;5071107;28;878;-60
2023/01/12 06:42:27;;;;;;;;;;;;;;;2.70;100.00;99870.19;5071143;28;874;-60
2023/01/12 06:43:55;;;;;;;;;;;;;;;2.73;100.00;99885.88;5071034;28;792;-60
2023/01/12 06:46:22;;;;;;;;;;;;;;;2.69;100.00;99855.75;5070984;28;884;-60
2023/01/12 06:48:48;;;;;;;;;;;;;;;2.71;100.00;99869.03;5071069;28;827;-60
2023/01/12 06:51:16;;;;;;;;;;;;;;;2.74;100.00;99871.09;5070894;28;1961;-60
2023/01/12 06:53:43;;;;;;;;;;;;;;;2.72;100.00;99848.81;5070972;28;899;-60
2023/01/12 06:56:09;;;;;;;;;;;;;;;2.70;100.00;99870.97;5070941;28;843;-60
2023/01/12 06:58:36;;;;;;;;;;;;;;;2.68;100.00;99872.47;5070941;28;835;-60
2023/01/12 07:01:04;;;;;;;;;;;;;;;2.66;100.00;99854.50;5070754;28;1230;-60
2023/01/12 07:03:31;;;;;;;;;;;;;;;2.70;100.00;99865.53;5070920;28;867;-61
2023/01/12 07:05:59;;;;;;;;;;;;;;;2.68;100.00;99873.25;5074444;28;827;-61
2023/01/12 07:08:26;;;;;;;;;;;;;;;2.66;100.00;99861.91;5074550;28;904;-61
2023/01/12 07:10:53;;;;;;;;;;;;;;;2.67;100.00;99877.16;5074466;28;1967;-62
2023/01/12 07:13:20;;;;;;;;;;;;;;;2.66;100.00;99881.00;5074420;28;855;-61
2023/01/12 07:15:47;;;;;;;;;;;;;;;2.65;100.00;99863.06;5073077;28;1155;-62
2023/01/12 07:18:14;;;;;;;;;;;;;;;2.69;100.00;99820.28;5074378;28;819;-61
2023/01/12 07:20:41;;;;;;;;;;;;;;;2.70;100.00;99860.06;5074327;28;843;-62
2023/01/12 07:23:08;;;;;;;;;;;;;;;2.70;100.00;99878.38;5072005;28;1462;-63
2023/01/12 07:25:35;;;;;;;;;;;;;;;2.68;100.00;99886.91;5074382;28;903;-63
2023/01/12 07:28:01;;;;;;;;;;;;;;;2.66;100.00;99881.78;5074217;28;874;-63
2023/01/12 07:30:28;;;;;;;;;;;;;;;2.69;100.00;99885.78;5072702;28;1195;-62
2023/01/12 07:33:04;;;;;;;;;;;;;;;2.66;100.00;99875.53;5074065;28;1961;-63
2023/01/12 07:35:31;;;;;;;;;;;;;;;2.70;100.00;99881.09;5074054;28;843;-63
2023/01/12 07:37:58;;;;;;;;;;;;;;;2.75;100.00;99887.13;5074130;28;870;-62
2023/01/12 07:40:25;;;;;;;;;;;;;;;2.76;100.00;99879.72;5073967;28;832;-63
2023/01/12 07:42:59;;;;;;;;;;;;;;;2.79;100.00;99900.84;5073914;28;863;-63
2023/01/12 07:45:26;;;;;;;;;;;;;;;2.80;100.00;99873.22;5074173;28;862;-64
2023/01/12 07:47:53;;;;;;;;;;;;;;;2.86;100.00;99909.25;5073835;28;811;-64
2023/01/12 07:50:21;;;;;;;;;;;;;;;2.84;100.00;99897.88;5073934;28;930;-62
2023/01/12 07:52:47;;;;;;;;;;;;;;;2.86;100.00;99907.31;5073631;28;1885;-62
2023/01/12 07:55:23;;;;;;;;;;;;;;;2.83;100.00;99908.00;5073788;28;831;-63
2023/01/12 07:57:57;;;;;;;;;;;;;;;2.81;100.00;99912.22;5073633;28;905;-62
2023/01/12 08:00:24;;;;;;;;;;;;;;;2.82;100.00;99924.75;5073675;28;920;-62
2023/01/12 08:02:52;;;;;;;;;;;;;;;2.80;100.00;99922.34;5073335;28;1233;-62
2023/01/12 08:05:20;;;;;;;;;;;;;;;2.80;100.00;99916.09;5073524;28;839;-61
2023/01/12 08:07:46;;;;;;;;;;;;;;;2.74;100.00;99937.38;5073404;28;862;-62
2023/01/12 08:10:14;;;;;;;;;;;;;;;2.72;100.00;99922.50;5073448;28;839;-62
2023/01/12 08:12:41;;;;;;;;;;;;;;;2.62;100.00;99923.75;5073587;28;1967;-63
2023/01/12 08:15:08;;;;;;;;;;;;;;;2.59;100.00;99928.00;5073117;28;807;-63
2023/01/12 08:17:39;;;;;;;;;;;;;;;2.60;100.00;99924.13;5073197;28;874;-62
2023/01/12 08:20:14;;;;;;;;;;;;;;;2.56;100.00;99941.53;5073257;28;912;-62
2023/01/12 08:22:44;;;;;;;;;;;;;;;2.55;100.00;99946.19;5073132;28;815;-62
2023/01/12 08:25:13;;;;;;;;;;;;;;;2.50;100.00;99924.63;5071996;28;852;-63
2023/01/12 08:27:42;;;;;;;;;;;;;;;2.44;100.00;99972.38;5073037;28;877;-62
2023/01/12 08:30:13;;;;;;;;;;;;;;;2.47;100.00;99941.66;5072951;28;863;-62
2023/01/12 08:32:39;;;;;;;;;;;;;;;2.42;100.00;99948.16;5072829;28;1945;-63
2023/01/12 08:35:07;;;;;;;;;;;;;;;2.45;100.00;99933.84;5072919;28;886;-63
2023/01/12 08:37:34;;;;;;;;;;;;;;;2.43;100.00;99897.91;5072900;28;890;-63
2023/01/12 08:40:03;;;;;;;;;;;;;;;2.43;100.00;99935.28;5072742;28;863;-62
2023/01/12 08:42:30;;;;;;;;;;;;;;;2.40;100.00;99931.31;5072825;28;847;-63
2023/01/12 08:44:56;;;;;;;;;;;;;;;2.44;100.00;99951.31;5072720;28;886;-61
2023/01/12 08:47:27;;;;;;;;;;;;;;;2.44;100.00;99964.97;5072635;28;1082;-62
2023/01/12 08:49:54;;;;;;;;;;;;;;;2.45;100.00;99952.94;5072593;28;804;-62
2023/01/12 08:52:21;;;;;;;;;;;;;;;2.48;100.00;99935.06;5072467;28;1910;-62
2023/01/12 08:54:48;;;;;;;;;;;;;;;2.53;100.00;99929.38;5072508;28;875;-62
2023/01/12 08:57:15;;;;;;;;;;;;;;;2.60;100.00;99958.78;5072451;28;811;-62
2023/01/12 08:59:42;;;;;;;;;;;;;;;2.65;100.00;99948.44;5072184;28;921;-62
2023/01/12 09:02:12;;;;;;;;;;;;;;;2.66;100.00;99947.28;5072035;28;1363;-62
2023/01/12 09:04:39;;;;;;;;;;;;;;;2.68;100.00;99954.34;5072323;28;890;-63
2023/01/12 09:07:10;;;;;;;;;;;;;;;2.65;100.00;99956.63;5072263;28;882;-63
2023/01/12 09:09:37;;;;;;;;;;;;;;;2.64;100.00;99957.75;5073061;28;835;-63
2023/01/12 09:12:04;;;;;;;;;;;;;;;2.55;100.00;99938.00;5072315;28;1959;-63
2023/01/12 09:14:37;;;;;;;;;;;;;;;2.48;100.00;99951.44;5072401;28;871;-63
2023/01/12 09:17:04;;;;;;;;;;;;;;;2.38;100.00;99928.16;5072085;28;891;-63
2023/01/12 09:19:31;;;;;;;;;;;;;;;2.33;100.00;99952.94;5071967;28;832;-63
2023/01/12 09:21:58;;;;;;;;;;;;;;;2.33;100.00;99938.53;5072039;28;811;-63
2023/01/12 09:24:26;;;;;;;;;;;;;;;2.30;100.00;99920.09;5071878;28;851;-64
2023/01/12 09:26:53;;;;;;;;;;;;;;;2.34;100.00;99951.78;5070081;28;1183;-63
2023/01/12 09:29:20;;;;;;;;;;;;;;;2.33;100.00;99947.50;5071743;28;808;-64
2023/01/12 09:31:47;;;;;;;;;;;;;;;2.39;100.00;99943.38;5071972;28;1945;-64
2023/01/12 09:34:13;;;;;;;;;;;;;;;2.37;100.00;99942.94;5071834;28;879;-63
2023/01/12 09:36:41;;;;;;;;;;;;;;;2.40;100.00;99936.00;5072134;28;910;-64
2023/01/12 09:39:07;;;;;;;;;;;;;;;2.42;100.00;99929.06;5071749;28;819;-64
2023/01/12 09:47:15;;;;;;;;;;;;;;;2.60;100.00;99973.25;5071981;28;677;-64
2023/01/12 09:49:45;;;;;;;;;;;;;;;2.63;100.00;99939.03;5071902;28;823;-65
2023/01/12 09:52:11;;;;;;;;;;;;;;;2.62;100.00;99961.97;5071520;28;1886;-64
2023/01/12 09:54:38;;;;;;;;;;;;;;;2.61;100.00;99966.66;5071611;28;803;-64
2023/01/12 09:57:14;;;;;;;;;;;;;;;2.60;100.00;99951.44;5071456;28;887;-64
2023/01/12 09:59:41;;;;;;;;;;;;;;;2.61;100.00;99953.00;5071527;28;899;-64
2023/01/12 10:02:11;;;;;;;;;;;;;;;2.61;100.00;99933.09;5071432;28;1410;-63
2023/01/12 10:04:39;;;;;;;;;;;;;;;2.60;100.00;99931.50;5071472;28;894;-64
2023/01/12 10:07:11;;;;;;;;;;;;;;;2.65;100.00;99934.00;5071455;28;894;-63
2023/01/12 10:09:36;;;;;;;;;;;;;;;2.72;100.00;99952.53;5071461;28;823;-64
2023/01/12 10:12:13;;;;;;;;;;;;;;;2.75;100.00;99944.44;5071321;28;1902;-64
2023/01/12 10:14:43;;;;;;;;;;;;;;;2.80;100.00;99967.97;5071372;28;811;-64
2023/01/12 10:17:09;;;;;;;;;;;;;;;2.80;100.00;99952.38;5072058;28;865;-63
2023/01/12 10:19:53;;;;;;;;;;;;;;;2.79;100.00;99967.16;5071670;28;882;-63
2023/01/12 10:22:40;;;;;;;;;;;;;;;2.74;100.00;99969.34;5071286;28;843;-63
2023/01/12 10:25:22;;;;;;;;;;;;;;;2.76;100.00;99962.41;5071265;28;878;-63
2023/01/12 10:27:51;;;;;;;;;;;;;;;2.76;100.00;99964.34;5071232;28;823;-62
2023/01/12 10:30:23;;;;;;;;;;;;;;;2.70;100.00;99961.06;5071181;28;827;-62
2023/01/12 10:32:50;;;;;;;;;;;;;;;2.70;100.00;99961.06;5071121;28;1945;-62
2023/01/12 10:35:19;;;;;;;;;;;;;;;2.70;100.00;99963.00;5071191;28;835;-63
2023/01/12 10:37:50;;;;;;;;;;;;;;;2.74;100.00;99959.22;5071268;28;827;-63
2023/01/12 10:40:30;;;;;;;;;;;;;;;2.73;100.00;99963.09;5075399;28;807;-62
2023/01/12 10:43:30;;;;;;;;;;;;;;;2.60;100.00;99950.59;5075067;28;871;-62
2023/01/12 10:46:10;;;;;;;;;;;;;;;2.45;100.00;99957.56;5074076;28;902;-60
2023/01/12 10:48:38;;;;;;;;;;;;;;;2.36;100.00;99963.16;5074899;28;811;-60
2023/01/12 10:51:17;;;;;;;;;;;;;;;2.32;100.00;99967.72;5074778;28;1958;-60
2023/01/12 10:53:46;;;;;;;;;;;;;;;2.33;100.00;99972.03;5074855;28;816;-60
2023/01/12 10:56:19;;;;;;;;;;;;;;;2.33;100.00;99954.88;5074644;28;960;-59
2023/01/12 10:58:54;;;;;;;;;;;;;;;2.35;100.00;99947.94;5074736;28;919;-60
2023/01/12 11:01:21;;;;;;;;;;;;;;;2.32;100.00;99981.34;5074631;28;1190;-57
2023/01/12 11:03:48;;;;;;;;;;;;;;;2.31;100.00;99952.50;5074661;28;915;-58
2023/01/12 11:06:21;;;;;;;;;;;;;;;2.28;100.00;99941.47;5074647;28;851;-58
2023/01/12 11:08:48;;;;;;;;;;;;;;;2.32;100.00;99958.75;5074528;28;839;-58
2023/01/12 11:11:30;;;;;;;;;;;;;;;2.36;100.00;99949.53;5074412;28;1975;-58
2023/01/12 11:14:01;;;;;;;;;;;;;;;2.38;100.00;99958.16;5074477;28;863;-57
2023/01/12 11:16:31;;;;;;;;;;;;;;;2.41;100.00;99929.38;5074374;28;827;-57
2023/01/12 11:19:12;;;;;;;;;;;;;;;2.42;100.00;99950.09;5074722;28;800;-57
2023/01/12 11:21:41;;;;;;;;;;;;;;;2.44;100.00;99947.81;5074299;28;816;-57
2023/01/12 11:24:27;;;;;;;;;;;;;;;2.43;100.00;99933.38;5072998;28;1167;-57
2023/01/12 11:26:56;;;;;;;;;;;;;;;2.51;100.00;99960.88;5074011;28;875;-57
2023/01/12 11:29:23;;;;;;;;;;;;;;;2.53;100.00;99948.47;5074208;28;882;-57
2023/01/12 11:31:53;;;;;;;;;;;;;;;2.60;100.00;99956.88;5074084;28;1890;-57
2023/01/12 11:34:24;;;;;;;;;;;;;;;2.69;100.00;99955.94;5074027;28;803;-57
2023/01/12 11:36:54;;;;;;;;;;;;;;;2.73;100.00;99948.63;5074092;28;820;-58
2023/01/12 11:39:26;;;;;;;;;;;;;;;2.76;100.00;99926.13;5074026;28;807;-58
2023/01/12 11:45:07;;;;;;;;;;;;;;;2.83;100.00;99954.41;5074242;28;633;-58
2023/01/12 11:47:39;;;;;;;;;;;;;;;2.84;100.00;99912.31;5074059;28;835;-58
2023/01/12 11:50:06;;;;;;;;;;;;;;;2.89;100.00;99954.97;5073258;28;870;-58
2023/01/12 11:52:34;;;;;;;;;;;;;;;2.96;100.00;99948.91;5073701;28;1886;-58
2023/01/12 11:55:01;;;;;;;;;;;;;;;3.01;100.00;99945.94;5073706;28;842;-59
2023/01/12 11:57:46;;;;;;;;;;;;;;;3.06;100.00;99940.22;5072337;28;1179;-59
2023/01/12 12:00:22;;;;;;;;;;;;;;;3.12;100.00;99949.75;5073683;28;1007;-59
2023/01/12 12:02:52;;;;;;;;;;;;;;;3.14;100.00;99952.94;5073331;28;1287;-59
2023/01/12 12:05:22;;;;;;;;;;;;;;;3.17;100.00;99945.97;5074323;28;775;-61
2023/01/12 12:08:07;;;;;;;;;;;;;;;3.18;100.00;99948.38;5073539;28;804;-61
2023/01/12 12:10:49;;;;;;;;;;;;;;;3.20;100.00;99934.34;5074193;28;812;-61
2023/01/12 12:13:19;;;;;;;;;;;;;;;3.21;100.00;99958.59;5073316;28;1971;-62
2023/01/12 12:15:49;;;;;;;;;;;;;;;3.17;100.00;99957.69;5073344;28;836;-61
2023/01/12 12:18:22;;;;;;;;;;;;;;;3.15;100.00;99945.53;5073570;28;898;-62
2023/01/12 12:20:52;;;;;;;;;;;;;;;3.12;100.00;99952.50;5073224;28;878;-62
2023/01/12 12:23:24;;;;;;;;;;;;;;;3.08;100.00;99961.72;5073417;28;804;-63
2023/01/12 12:26:05;;;;;;;;;;;;;;;3.07;100.00;99980.03;5073010;28;890;-63
2023/01/12 12:28:38;;;;;;;;;;;;;;;3.05;100.00;99974.13;5073098;28;780;-63
2023/01/12 12:31:12;;;;;;;;;;;;;;;3.03;100.00;99976.41;5073184;28;1967;-64
2023/01/12 12:33:39;;;;;;;;;;;;;;;3.03;100.00;99973.66;5073656;28;799;-64
2023/01/12 12:36:16;;;;;;;;;;;;;;;3.06;100.00;99964.81;5073092;28;823;-63
2023/01/12 12:39:01;;;;;;;;;;;;;;;3.02;100.00;99952.97;5072851;28;835;-63
2023/01/12 12:47:35;;;;;;;;;;;;;;;3.12;100.00;99976.28;5072680;28;641;-62
2023/01/12 12:50:07;;;;;;;;;;;;;;;3.12;100.00;99968.88;5072612;28;859;-62
2023/01/12 12:52:34;;;;;;;;;;;;;;;3.15;100.00;99981.03;5072668;28;1862;-63
2023/01/12 12:55:02;;;;;;;;;;;;;;;3.16;100.00;99966.22;5072729;28;831;-62
2023/01/12 12:57:29;;;;;;;;;;;;;;;3.17;100.00;99967.81;5071316;28;1293;-62
2023/01/12 12:59:59;;;;;;;;;;;;;;;3.12;100.00;99973.56;5072740;28;917;-63
2023/01/12 13:02:32;;;;;;;;;;;;;;;3.12;100.00;99989.94;5071251;28;1274;-62
2023/01/12 13:05:01;;;;;;;;;;;;;;;3.14;100.00;100012.22;5072346;28;818;-62
2023/01/12 13:07:28;;;;;;;;;;;;;;;3.14;100.00;99988.44;5072291;28;870;-62
2023/01/12 13:10:14;;;;;;;;;;;;;;;3.12;100.00;100000.88;5072264;28;867;-61
2023/01/12 13:12:40;;;;;;;;;;;;;;;3.10;100.00;99986.75;5072062;28;1902;-62
2023/01/12 13:15:28;;;;;;;;;;;;;;;3.11;100.00;99971.94;5070621;28;1250;-62
2023/01/12 13:17:55;;;;;;;;;;;;;;;3.11;100.00;99999.25;5072122;28;858;-62
2023/01/12 13:20:58;;;;;;;;;;;;;;;3.11;100.00;99980.13;5070710;28;1234;-62
2023/01/12 13:23:44;;;;;;;;;;;;;;;3.09;100.00;99993.34;5010223;28;1379;-61
2023/01/12 13:26:31;;;;;;;;;;;;;;;3.08;100.00;99978.91;5010435;28;1034;-62
2023/01/12 13:29:17;;;;;;;;;;;;;;;3.11;100.00;99997.31;4997251;28;1330;-62
2023/01/12 13:31:43;;;;;;;;;;;;;;;3.10;100.00;99994.94;5010121;28;1953;-62
2023/01/12 13:34:29;;;;;;;;;;;;;;;3.08;100.00;99994.50;5010122;28;832;-62
2023/01/12 13:37:14;;;;;;;;;;;;;;;3.09;100.00;100010.53;5010072;28;1062;-61
2023/01/12 13:39:47;;;;;;;;;;;;;;;3.11;100.00;99982.88;5010075;28;856;-61
2023/01/12 13:45:02;;;;;;;;;;;;;;;3.17;100.00;99986.94;5010016;28;1045;-61
2023/01/12 13:47:31;;;;;;;;;;;;;;;3.17;100.00;99992.41;5009847;28;1197;-61
2023/01/12 13:50:00;;;;;;;;;;;;;;;3.20;100.00;99980.78;5010114;28;884;-61
2023/01/12 13:52:28;;;;;;;;;;;;;;;3.16;100.00;100002.53;5009897;28;1947;-61
2023/01/12 13:54:54;;;;;;;;;;;;;;;3.15;100.00;99994.69;5009756;28;812;-61
2023/01/12 13:57:22;;;;;;;;;;;;;;;3.16;100.00;99988.06;5040763;28;916;-61
2023/01/12 13:59:59;;;;;;;;;;;;;;;3.11;100.00;99994.59;5071517;28;1105;-62
2023/01/12 14:02:31;;;;;;;;;;;;;;;3.15;100.00;99998.22;5071336;28;1253;-61
2023/01/12 14:05:16;;;;;;;;;;;;;;;3.16;100.00;99996.25;5070188;28;895;-62
2023/01/12 14:07:52;;;;;;;;;;;;;;;3.12;100.00;99992.66;5071458;28;867;-61
2023/01/12 14:10:18;;;;;;;;;;;;;;;3.10;100.00;100009.41;5071481;28;862;-61
2023/01/12 14:12:59;;;;;;;;;;;;;;;3.08;100.00;99995.28;5071083;28;1967;-61
2023/01/12 14:18:18;;;;;;;;;;;;;;;3.04;100.00;99981.53;5071338;28;618;-61
2023/01/12 14:20:49;;;;;;;;;;;;;;;3.06;100.00;100000.31;5071940;28;824;-61
2023/01/12 14:23:21;;;;;;;;;;;;;;;3.03;100.00;100007.25;5071146;28;904;-61
2023/01/12 14:26:08;;;;;;;;;;;;;;;3.04;100.00;100008.03;5071306;28;824;-62
2023/01/12 14:28:35;;;;;;;;;;;;;;;3.02;100.00;100007.59;5060182;28;1330;-61